This is the latest recevied weather packets stored in our database for station/object GW1491. If no packets are shown the sender has not sent any weather packets the latest 10 day(s).
| Time | Temp. | Humidity | Pressure | Rain* | Wind** | Luminosity | Snow |
|---|---|---|---|---|---|---|---|
| 1778040229 | 15° C | 96% | 1008.8 hPa | 0.76 mm | - | - | - |
| 1778038035 | 15.56° C | 93% | 1009.1 hPa | 0.51 mm | - | - | - |
| 1778037350 | 15.56° C | 92% | 1009.1 hPa | 0.51 mm | - | - | - |
| 1778036267 | 16.11° C | 88% | 1008.8 hPa | 0.51 mm | - | - | - |
| 1778035889 | 16.67° C | 86% | 1009.1 hPa | 0.51 mm | - | - | - |
| 1778032311 | 19.44° C | 67% | 1008.8 hPa | 0 mm | - | - | - |
| 1778024727 | 20.56° C | 62% | 1009.1 hPa | 0 mm | - | - | - |
| 1778019674 | 21.67° C | 60% | 1009.1 hPa | 0 mm | - | - | - |
| 1778018261 | 21.67° C | 60% | 1009.1 hPa | 0 mm | - | - | - |
| 1778017909 | 21.67° C | 61% | 1008.8 hPa | 0 mm | - | - | - |
| 1778017181 | 22.22° C | 60% | 1009.1 hPa | 0 mm | - | - | - |
| 1778016463 | 22.22° C | 61% | 1009.1 hPa | 0 mm | - | - | - |
| 1778011780 | 22.22° C | 60% | 1009.8 hPa | 0 mm | - | - | - |
| 1778008172 | 22.22° C | 61% | 1010.1 hPa | 0 mm | - | - | - |
| 1778007816 | 22.22° C | 62% | 1010.4 hPa | 0 mm | - | - | - |
| 1778003485 | 22.22° C | 60% | 1010.4 hPa | 0 mm | - | - | - |
| 1778003125 | 22.22° C | 62% | 1010.4 hPa | 0 mm | - | - | - |
| 1778000979 | 22.22° C | 60% | 1010.1 hPa | 0 mm | - | - | - |
| 1778000609 | 22.22° C | 60% | 1010.1 hPa | 0 mm | - | - | - |
| 1777999512 | 22.22° C | 61% | 1010.4 hPa | 0 mm | - | - | - |
| 1777998439 | 21.11° C | 62% | 1010.4 hPa | 0 mm | - | - | - |
| 1777998108 | 21.67° C | 64% | 1010.8 hPa | 0 mm | - | - | - |
| 1777997735 | 21.67° C | 63% | 1010.4 hPa | 0 mm | - | - | - |
| 1777993411 | 20° C | 66% | 1010.8 hPa | 0 mm | - | - | - |
| 1777992708 | 20° C | 68% | 1010.4 hPa | 0 mm | - | - | - |
* Rain since midnight (hover to see other rain measurements)
** Current wind speed in m/s (hover to see current wind gust speed)